sensor_id;sensor_type;location;lat;lon;timestamp;P1;durP1;ratioP1;P2;durP2;ratioP2
20101;SDS011;10210;52.284;9.892;2023-02-28T00:00:30;14.33;;;5.80;;
20101;SDS011;10210;52.284;9.892;2023-02-28T00:02:57;14.80;;;6.43;;
20101;SDS011;10210;52.284;9.892;2023-02-28T00:05:23;15.13;;;6.67;;
20101;SDS011;10210;52.284;9.892;2023-02-28T00:07:50;14.53;;;6.37;;
20101;SDS011;10210;52.284;9.892;2023-02-28T00:10:18;16.27;;;6.80;;
20101;SDS011;10210;52.284;9.892;2023-02-28T00:12:51;13.70;;;6.13;;
20101;SDS011;10210;52.284;9.892;2023-02-28T00:15:19;16.30;;;6.17;;
20101;SDS011;10210;52.284;9.892;2023-02-28T00:17:46;14.20;;;5.70;;
20101;SDS011;10210;52.284;9.892;2023-02-28T00:20:12;13.43;;;5.83;;
20101;SDS011;10210;52.284;9.892;2023-02-28T00:22:39;14.07;;;5.80;;
20101;SDS011;10210;52.284;9.892;2023-02-28T00:25:11;13.10;;;5.67;;
20101;SDS011;10210;52.284;9.892;2023-02-28T00:27:39;14.80;;;6.03;;
20101;SDS011;10210;52.284;9.892;2023-02-28T00:30:06;13.70;;;5.50;;
20101;SDS011;10210;52.284;9.892;2023-02-28T00:32:35;14.50;;;6.20;;
20101;SDS011;10210;52.284;9.892;2023-02-28T00:35:01;13.53;;;5.47;;
20101;SDS011;10210;52.284;9.892;2023-02-28T00:37:28;15.73;;;5.80;;
20101;SDS011;10210;52.284;9.892;2023-02-28T00:39:54;16.13;;;6.13;;
20101;SDS011;10210;52.284;9.892;2023-02-28T00:42:19;14.80;;;5.93;;
20101;SDS011;10210;52.284;9.892;2023-02-28T00:44:45;14.63;;;6.00;;
20101;SDS011;10210;52.284;9.892;2023-02-28T00:47:11;13.87;;;6.10;;
20101;SDS011;10210;52.284;9.892;2023-02-28T00:49:36;13.33;;;5.73;;
20101;SDS011;10210;52.284;9.892;2023-02-28T00:52:02;14.10;;;6.10;;
20101;SDS011;10210;52.284;9.892;2023-02-28T00:54:28;15.53;;;6.37;;
20101;SDS011;10210;52.284;9.892;2023-02-28T00:56:54;17.37;;;6.23;;
20101;SDS011;10210;52.284;9.892;2023-02-28T00:59:19;15.57;;;6.07;;
20101;SDS011;10210;52.284;9.892;2023-02-28T01:01:45;14.53;;;5.70;;
20101;SDS011;10210;52.284;9.892;2023-02-28T01:04:11;14.93;;;5.97;;
20101;SDS011;10210;52.284;9.892;2023-02-28T01:06:38;14.73;;;6.50;;
20101;SDS011;10210;52.284;9.892;2023-02-28T01:09:06;13.57;;;5.70;;
20101;SDS011;10210;52.284;9.892;2023-02-28T01:11:32;13.93;;;6.00;;
20101;SDS011;10210;52.284;9.892;2023-02-28T01:13:59;15.90;;;5.73;;
20101;SDS011;10210;52.284;9.892;2023-02-28T01:16:26;14.60;;;5.83;;
20101;SDS011;10210;52.284;9.892;2023-02-28T01:18:52;16.13;;;5.80;;
20101;SDS011;10210;52.284;9.892;2023-02-28T01:21:19;12.70;;;5.63;;
20101;SDS011;10210;52.284;9.892;2023-02-28T01:23:46;13.73;;;5.13;;
20101;SDS011;10210;52.284;9.892;2023-02-28T01:26:22;16.93;;;5.73;;
20101;SDS011;10210;52.284;9.892;2023-02-28T01:28:49;14.33;;;6.17;;
20101;SDS011;10210;52.284;9.892;2023-02-28T01:31:16;13.33;;;5.70;;
20101;SDS011;10210;52.284;9.892;2023-02-28T01:33:44;14.37;;;5.97;;
20101;SDS011;10210;52.284;9.892;2023-02-28T01:36:11;13.13;;;5.57;;
20101;SDS011;10210;52.284;9.892;2023-02-28T01:38:47;12.73;;;5.53;;
20101;SDS011;10210;52.284;9.892;2023-02-28T01:46:15;16.33;;;5.90;;
20101;SDS011;10210;52.284;9.892;2023-02-28T01:49:23;14.27;;;5.90;;
20101;SDS011;10210;52.284;9.892;2023-02-28T01:51:49;14.17;;;5.70;;
20101;SDS011;10210;52.284;9.892;2023-02-28T01:54:26;13.70;;;5.87;;
20101;SDS011;10210;52.284;9.892;2023-02-28T01:56:57;13.90;;;5.83;;
20101;SDS011;10210;52.284;9.892;2023-02-28T01:59:49;13.07;;;5.10;;
20101;SDS011;10210;52.284;9.892;2023-02-28T02:02:24;14.07;;;5.77;;
20101;SDS011;10210;52.284;9.892;2023-02-28T02:07:48;14.50;;;5.40;;
20101;SDS011;10210;52.284;9.892;2023-02-28T02:10:21;13.03;;;5.70;;
20101;SDS011;10210;52.284;9.892;2023-02-28T02:13:07;13.13;;;5.70;;
20101;SDS011;10210;52.284;9.892;2023-02-28T02:31:05;16.33;;;6.63;;
20101;SDS011;10210;52.284;9.892;2023-02-28T02:36:51;14.53;;;6.43;;
20101;SDS011;10210;52.284;9.892;2023-02-28T02:39:45;14.20;;;6.10;;
20101;SDS011;10210;52.284;9.892;2023-02-28T02:45:45;15.03;;;6.37;;
20101;SDS011;10210;52.284;9.892;2023-02-28T02:48:20;14.37;;;6.47;;
20101;SDS011;10210;52.284;9.892;2023-02-28T02:50:53;14.27;;;6.13;;
20101;SDS011;10210;52.284;9.892;2023-02-28T02:53:25;16.03;;;6.50;;
20101;SDS011;10210;52.284;9.892;2023-02-28T02:55:59;13.13;;;5.30;;
20101;SDS011;10210;52.284;9.892;2023-02-28T02:58:29;12.90;;;5.70;;
20101;SDS011;10210;52.284;9.892;2023-02-28T03:01:06;13.23;;;5.10;;
20101;SDS011;10210;52.284;9.892;2023-02-28T03:03:37;12.53;;;5.20;;
20101;SDS011;10210;52.284;9.892;2023-02-28T03:06:03;14.10;;;5.27;;
20101;SDS011;10210;52.284;9.892;2023-02-28T03:08:33;15.17;;;6.07;;
20101;SDS011;10210;52.284;9.892;2023-02-28T03:11:03;11.50;;;4.53;;
20101;SDS011;10210;52.284;9.892;2023-02-28T03:14:00;12.63;;;4.80;;
20101;SDS011;10210;52.284;9.892;2023-02-28T03:19:55;14.80;;;6.13;;
20101;SDS011;10210;52.284;9.892;2023-02-28T03:33:20;16.23;;;6.93;;
20101;SDS011;10210;52.284;9.892;2023-02-28T03:35:55;14.87;;;5.90;;
20101;SDS011;10210;52.284;9.892;2023-02-28T03:38:33;14.53;;;6.07;;
20101;SDS011;10210;52.284;9.892;2023-02-28T03:41:19;14.53;;;5.93;;
20101;SDS011;10210;52.284;9.892;2023-02-28T03:43:56;13.40;;;5.77;;
20101;SDS011;10210;52.284;9.892;2023-02-28T03:46:31;13.33;;;5.53;;
20101;SDS011;10210;52.284;9.892;2023-02-28T03:49:17;13.27;;;5.80;;
20101;SDS011;10210;52.284;9.892;2023-02-28T03:51:49;13.37;;;5.50;;
20101;SDS011;10210;52.284;9.892;2023-02-28T03:54:23;12.50;;;5.60;;
20101;SDS011;10210;52.284;9.892;2023-02-28T03:57:03;12.47;;;5.43;;
20101;SDS011;10210;52.284;9.892;2023-02-28T03:59:57;12.43;;;5.10;;
20101;SDS011;10210;52.284;9.892;2023-02-28T04:02:31;12.23;;;5.10;;
20101;SDS011;10210;52.284;9.892;2023-02-28T04:04:59;13.10;;;5.30;;
20101;SDS011;10210;52.284;9.892;2023-02-28T04:07:28;13.47;;;5.47;;
20101;SDS011;10210;52.284;9.892;2023-02-28T04:09:55;12.10;;;5.27;;
20101;SDS011;10210;52.284;9.892;2023-02-28T04:12:22;13.30;;;5.57;;
20101;SDS011;10210;52.284;9.892;2023-02-28T04:14:48;15.53;;;5.57;;
20101;SDS011;10210;52.284;9.892;2023-02-28T04:17:14;16.80;;;6.07;;
20101;SDS011;10210;52.284;9.892;2023-02-28T04:19:41;15.07;;;6.30;;
20101;SDS011;10210;52.284;9.892;2023-02-28T04:22:09;14.57;;;5.90;;
20101;SDS011;10210;52.284;9.892;2023-02-28T04:24:35;15.47;;;6.30;;
20101;SDS011;10210;52.284;9.892;2023-02-28T04:27:01;14.27;;;6.00;;
20101;SDS011;10210;52.284;9.892;2023-02-28T04:29:28;15.03;;;5.80;;
20101;SDS011;10210;52.284;9.892;2023-02-28T04:31:57;14.97;;;6.10;;
20101;SDS011;10210;52.284;9.892;2023-02-28T04:34:25;13.80;;;5.90;;
20101;SDS011;10210;52.284;9.892;2023-02-28T04:36:52;15.97;;;7.17;;
20101;SDS011;10210;52.284;9.892;2023-02-28T04:39:20;13.67;;;5.53;;
20101;SDS011;10210;52.284;9.892;2023-02-28T04:41:48;15.57;;;6.57;;
20101;SDS011;10210;52.284;9.892;2023-02-28T04:44:14;13.17;;;5.47;;
20101;SDS011;10210;52.284;9.892;2023-02-28T04:46:40;16.13;;;5.83;;
20101;SDS011;10210;52.284;9.892;2023-02-28T04:49:08;13.13;;;5.80;;
20101;SDS011;10210;52.284;9.892;2023-02-28T04:51:36;16.43;;;6.53;;
20101;SDS011;10210;52.284;9.892;2023-02-28T04:54:02;15.27;;;5.80;;
20101;SDS011;10210;52.284;9.892;2023-02-28T04:56:28;16.87;;;6.47;;
20101;SDS011;10210;52.284;9.892;2023-02-28T04:58:54;14.73;;;5.80;;
20101;SDS011;10210;52.284;9.892;2023-02-28T05:03:45;17.60;;;6.73;;
20101;SDS011;10210;52.284;9.892;2023-02-28T05:06:12;16.07;;;6.77;;
20101;SDS011;10210;52.284;9.892;2023-02-28T05:08:38;19.43;;;6.40;;
20101;SDS011;10210;52.284;9.892;2023-02-28T05:11:15;15.27;;;6.00;;
20101;SDS011;10210;52.284;9.892;2023-02-28T05:13:44;15.67;;;6.70;;
20101;SDS011;10210;52.284;9.892;2023-02-28T05:16:10;17.37;;;7.17;;
20101;SDS011;10210;52.284;9.892;2023-02-28T05:18:36;15.73;;;6.87;;
20101;SDS011;10210;52.284;9.892;2023-02-28T05:21:04;16.53;;;6.70;;
20101;SDS011;10210;52.284;9.892;2023-02-28T05:23:30;15.23;;;6.80;;
20101;SDS011;10210;52.284;9.892;2023-02-28T05:25:57;15.50;;;6.53;;
20101;SDS011;10210;52.284;9.892;2023-02-28T05:28:22;14.00;;;6.43;;
20101;SDS011;10210;52.284;9.892;2023-02-28T05:30:48;15.77;;;6.77;;
20101;SDS011;10210;52.284;9.892;2023-02-28T05:33:14;17.90;;;7.10;;
20101;SDS011;10210;52.284;9.892;2023-02-28T05:35:41;18.07;;;7.63;;
20101;SDS011;10210;52.284;9.892;2023-02-28T05:38:07;17.13;;;6.40;;
20101;SDS011;10210;52.284;9.892;2023-02-28T05:40:33;15.37;;;7.07;;
20101;SDS011;10210;52.284;9.892;2023-02-28T05:42:59;14.43;;;6.70;;
20101;SDS011;10210;52.284;9.892;2023-02-28T05:45:26;15.83;;;6.97;;
20101;SDS011;10210;52.284;9.892;2023-02-28T05:47:54;17.80;;;6.40;;
20101;SDS011;10210;52.284;9.892;2023-02-28T05:50:21;15.60;;;6.53;;
20101;SDS011;10210;52.284;9.892;2023-02-28T05:52:52;14.97;;;6.20;;
20101;SDS011;10210;52.284;9.892;2023-02-28T05:55:18;15.07;;;6.10;;
20101;SDS011;10210;52.284;9.892;2023-02-28T05:57:44;17.73;;;6.93;;
20101;SDS011;10210;52.284;9.892;2023-02-28T06:00:10;14.17;;;6.20;;
20101;SDS011;10210;52.284;9.892;2023-02-28T06:02:38;14.50;;;6.40;;
20101;SDS011;10210;52.284;9.892;2023-02-28T06:05:05;13.43;;;5.93;;
20101;SDS011;10210;52.284;9.892;2023-02-28T06:07:38;15.00;;;6.67;;
20101;SDS011;10210;52.284;9.892;2023-02-28T06:10:04;13.10;;;6.00;;
20101;SDS011;10210;52.284;9.892;2023-02-28T06:12:31;12.73;;;6.20;;
20101;SDS011;10210;52.284;9.892;2023-02-28T06:14:56;15.07;;;6.37;;
20101;SDS011;10210;52.284;9.892;2023-02-28T06:17:22;14.00;;;6.13;;
20101;SDS011;10210;52.284;9.892;2023-02-28T06:19:48;14.40;;;6.27;;
20101;SDS011;10210;52.284;9.892;2023-02-28T06:22:13;15.97;;;6.07;;
20101;SDS011;10210;52.284;9.892;2023-02-28T06:24:39;16.63;;;7.20;;
20101;SDS011;10210;52.284;9.892;2023-02-28T06:27:05;16.50;;;6.53;;
20101;SDS011;10210;52.284;9.892;2023-02-28T06:29:34;16.27;;;6.53;;
20101;SDS011;10210;52.284;9.892;2023-02-28T06:32:01;15.10;;;6.47;;
20101;SDS011;10210;52.284;9.892;2023-02-28T06:34:26;15.57;;;6.50;;
20101;SDS011;10210;52.284;9.892;2023-02-28T06:36:52;15.67;;;6.53;;
20101;SDS011;10210;52.284;9.892;2023-02-28T06:39:18;15.73;;;6.67;;
20101;SDS011;10210;52.284;9.892;2023-02-28T06:41:44;14.53;;;6.40;;
20101;SDS011;10210;52.284;9.892;2023-02-28T06:44:17;14.13;;;6.53;;
20101;SDS011;10210;52.284;9.892;2023-02-28T06:46:44;20.17;;;7.40;;
20101;SDS011;10210;52.284;9.892;2023-02-28T06:49:11;17.80;;;7.10;;
20101;SDS011;10210;52.284;9.892;2023-02-28T06:51:38;19.53;;;7.70;;
20101;SDS011;10210;52.284;9.892;2023-02-28T06:54:06;15.83;;;7.07;;
20101;SDS011;10210;52.284;9.892;2023-02-28T06:56:35;16.77;;;6.63;;
20101;SDS011;10210;52.284;9.892;2023-02-28T06:59:02;16.07;;;7.10;;
20101;SDS011;10210;52.284;9.892;2023-02-28T07:01:29;16.30;;;7.10;;
20101;SDS011;10210;52.284;9.892;2023-02-28T07:03:56;17.87;;;8.17;;
20101;SDS011;10210;52.284;9.892;2023-02-28T07:06:23;17.67;;;7.63;;
20101;SDS011;10210;52.284;9.892;2023-02-28T07:08:50;18.17;;;7.93;;
20101;SDS011;10210;52.284;9.892;2023-02-28T07:11:18;17.40;;;7.53;;
20101;SDS011;10210;52.284;9.892;2023-02-28T07:13:46;17.73;;;7.27;;
20101;SDS011;10210;52.284;9.892;2023-02-28T07:16:12;17.20;;;6.93;;
20101;SDS011;10210;52.284;9.892;2023-02-28T07:18:38;19.93;;;8.23;;
20101;SDS011;10210;52.284;9.892;2023-02-28T07:21:06;17.10;;;7.70;;
20101;SDS011;10210;52.284;9.892;2023-02-28T07:23:34;15.93;;;6.93;;
20101;SDS011;10210;52.284;9.892;2023-02-28T07:26:02;17.53;;;7.70;;
20101;SDS011;10210;52.284;9.892;2023-02-28T07:28:29;17.63;;;7.73;;
20101;SDS011;10210;52.284;9.892;2023-02-28T07:30:55;16.63;;;7.13;;
20101;SDS011;10210;52.284;9.892;2023-02-28T07:33:21;18.53;;;8.17;;
20101;SDS011;10210;52.284;9.892;2023-02-28T07:35:46;16.90;;;7.40;;
20101;SDS011;10210;52.284;9.892;2023-02-28T07:38:12;17.80;;;7.97;;
20101;SDS011;10210;52.284;9.892;2023-02-28T07:40:38;18.40;;;8.00;;
20101;SDS011;10210;52.284;9.892;2023-02-28T07:43:04;18.43;;;7.80;;
20101;SDS011;10210;52.284;9.892;2023-02-28T07:45:30;17.00;;;7.83;;
20101;SDS011;10210;52.284;9.892;2023-02-28T07:47:59;22.07;;;8.73;;
20101;SDS011;10210;52.284;9.892;2023-02-28T07:50:26;21.27;;;9.50;;
20101;SDS011;10210;52.284;9.892;2023-02-28T07:52:55;17.40;;;8.40;;
20101;SDS011;10210;52.284;9.892;2023-02-28T07:55:22;15.90;;;7.70;;
20101;SDS011;10210;52.284;9.892;2023-02-28T07:57:48;16.80;;;7.67;;
20101;SDS011;10210;52.284;9.892;2023-02-28T08:00:14;18.37;;;8.90;;
20101;SDS011;10210;52.284;9.892;2023-02-28T08:02:40;20.50;;;8.07;;
20101;SDS011;10210;52.284;9.892;2023-02-28T08:05:06;18.00;;;8.93;;
20101;SDS011;10210;52.284;9.892;2023-02-28T08:07:32;17.17;;;8.50;;
20101;SDS011;10210;52.284;9.892;2023-02-28T08:09:58;17.67;;;8.07;;
20101;SDS011;10210;52.284;9.892;2023-02-28T08:12:25;17.03;;;7.87;;
20101;SDS011;10210;52.284;9.892;2023-02-28T08:14:51;15.80;;;7.33;;
20101;SDS011;10210;52.284;9.892;2023-02-28T08:17:17;14.40;;;6.63;;
20101;SDS011;10210;52.284;9.892;2023-02-28T08:19:44;17.07;;;6.93;;
20101;SDS011;10210;52.284;9.892;2023-02-28T08:22:11;15.40;;;6.30;;
20101;SDS011;10210;52.284;9.892;2023-02-28T08:24:37;14.57;;;6.53;;
20101;SDS011;10210;52.284;9.892;2023-02-28T08:27:03;15.80;;;6.63;;
20101;SDS011;10210;52.284;9.892;2023-02-28T08:29:29;16.27;;;6.50;;
20101;SDS011;10210;52.284;9.892;2023-02-28T08:31:55;15.80;;;6.80;;
20101;SDS011;10210;52.284;9.892;2023-02-28T08:34:21;15.87;;;6.23;;
20101;SDS011;10210;52.284;9.892;2023-02-28T08:36:48;14.47;;;5.90;;
20101;SDS011;10210;52.284;9.892;2023-02-28T08:39:14;14.60;;;6.37;;
20101;SDS011;10210;52.284;9.892;2023-02-28T08:41:41;13.87;;;6.50;;
20101;SDS011;10210;52.284;9.892;2023-02-28T08:44:07;14.03;;;6.03;;
20101;SDS011;10210;52.284;9.892;2023-02-28T08:46:33;13.00;;;5.70;;
20101;SDS011;10210;52.284;9.892;2023-02-28T08:48:58;14.67;;;5.73;;
20101;SDS011;10210;52.284;9.892;2023-02-28T08:51:26;14.37;;;5.67;;
20101;SDS011;10210;52.284;9.892;2023-02-28T08:53:54;13.10;;;5.60;;
20101;SDS011;10210;52.284;9.892;2023-02-28T08:56:22;13.57;;;5.83;;
20101;SDS011;10210;52.284;9.892;2023-02-28T08:58:49;13.13;;;5.47;;
20101;SDS011;10210;52.284;9.892;2023-02-28T09:01:16;13.30;;;5.40;;
20101;SDS011;10210;52.284;9.892;2023-02-28T09:03:52;12.43;;;5.30;;
20101;SDS011;10210;52.284;9.892;2023-02-28T09:06:20;13.17;;;5.07;;
20101;SDS011;10210;52.284;9.892;2023-02-28T09:08:50;12.83;;;5.10;;
20101;SDS011;10210;52.284;9.892;2023-02-28T09:11:17;10.73;;;4.63;;
20101;SDS011;10210;52.284;9.892;2023-02-28T09:13:44;13.33;;;4.83;;
20101;SDS011;10210;52.284;9.892;2023-02-28T09:16:12;11.90;;;4.83;;
20101;SDS011;10210;52.284;9.892;2023-02-28T09:18:41;11.70;;;4.53;;
20101;SDS011;10210;52.284;9.892;2023-02-28T09:21:08;10.90;;;4.30;;
20101;SDS011;10210;52.284;9.892;2023-02-28T09:23:39;11.40;;;4.13;;
20101;SDS011;10210;52.284;9.892;2023-02-28T09:26:13;12.80;;;4.70;;
20101;SDS011;10210;52.284;9.892;2023-02-28T09:28:52;11.33;;;4.40;;
20101;SDS011;10210;52.284;9.892;2023-02-28T09:31:21;11.60;;;4.50;;
20101;SDS011;10210;52.284;9.892;2023-02-28T09:33:51;12.30;;;4.40;;
20101;SDS011;10210;52.284;9.892;2023-02-28T09:36:20;10.17;;;3.93;;
20101;SDS011;10210;52.284;9.892;2023-02-28T09:38:48;11.60;;;3.80;;
20101;SDS011;10210;52.284;9.892;2023-02-28T09:41:17;9.83;;;3.67;;
20101;SDS011;10210;52.284;9.892;2023-02-28T09:43:50;10.30;;;3.80;;
20101;SDS011;10210;52.284;9.892;2023-02-28T09:49:16;9.97;;;3.40;;
20101;SDS011;10210;52.284;9.892;2023-02-28T09:51:58;10.27;;;3.70;;
20101;SDS011;10210;52.284;9.892;2023-02-28T09:54:29;8.57;;;3.13;;
20101;SDS011;10210;52.284;9.892;2023-02-28T09:59:36;8.90;;;2.90;;
20101;SDS011;10210;52.284;9.892;2023-02-28T10:05:15;8.07;;;2.97;;
20101;SDS011;10210;52.284;9.892;2023-02-28T10:07:53;9.00;;;2.90;;
20101;SDS011;10210;52.284;9.892;2023-02-28T10:10:45;8.10;;;3.17;;
20101;SDS011;10210;52.284;9.892;2023-02-28T10:13:32;9.67;;;3.13;;
20101;SDS011;10210;52.284;9.892;2023-02-28T10:16:16;10.53;;;3.27;;
20101;SDS011;10210;52.284;9.892;2023-02-28T10:18:54;8.13;;;2.97;;
20101;SDS011;10210;52.284;9.892;2023-02-28T10:21:38;11.27;;;3.13;;
20101;SDS011;10210;52.284;9.892;2023-02-28T10:27:00;11.00;;;3.27;;
20101;SDS011;10210;52.284;9.892;2023-02-28T10:29:38;10.77;;;3.10;;
20101;SDS011;10210;52.284;9.892;2023-02-28T10:32:09;11.33;;;2.90;;
20101;SDS011;10210;52.284;9.892;2023-02-28T10:34:42;9.90;;;3.33;;
20101;SDS011;10210;52.284;9.892;2023-02-28T10:37:08;11.07;;;3.57;;
20101;SDS011;10210;52.284;9.892;2023-02-28T10:39:39;11.90;;;3.70;;
20101;SDS011;10210;52.284;9.892;2023-02-28T10:42:21;11.87;;;3.60;;
20101;SDS011;10210;52.284;9.892;2023-02-28T10:45:05;9.63;;;3.57;;
20101;SDS011;10210;52.284;9.892;2023-02-28T10:47:50;11.03;;;3.90;;
20101;SDS011;10210;52.284;9.892;2023-02-28T11:01:15;10.60;;;3.80;;
20101;SDS011;10210;52.284;9.892;2023-02-28T11:04:03;10.80;;;3.23;;
20101;SDS011;10210;52.284;9.892;2023-02-28T11:06:47;9.37;;;3.07;;
20101;SDS011;10210;52.284;9.892;2023-02-28T11:09:24;9.60;;;3.10;;
20101;SDS011;10210;52.284;9.892;2023-02-28T11:12:02;9.63;;;3.00;;
20101;SDS011;10210;52.284;9.892;2023-02-28T11:14:47;11.37;;;3.63;;
20101;SDS011;10210;52.284;9.892;2023-02-28T11:17:21;10.57;;;2.97;;
20101;SDS011;10210;52.284;9.892;2023-02-28T11:19:51;8.83;;;3.03;;
20101;SDS011;10210;52.284;9.892;2023-02-28T11:22:32;9.37;;;3.07;;
20101;SDS011;10210;52.284;9.892;2023-02-28T11:25:09;10.47;;;3.00;;
20101;SDS011;10210;52.284;9.892;2023-02-28T11:27:48;10.63;;;3.13;;
20101;SDS011;10210;52.284;9.892;2023-02-28T11:35:57;11.73;;;3.30;;
20101;SDS011;10210;52.284;9.892;2023-02-28T11:38:29;9.43;;;3.33;;
20101;SDS011;10210;52.284;9.892;2023-02-28T11:41:04;10.33;;;3.30;;
20101;SDS011;10210;52.284;9.892;2023-02-28T11:44:27;11.70;;;3.23;;
20101;SDS011;10210;52.284;9.892;2023-02-28T11:46:58;7.20;;;2.60;;
20101;SDS011;10210;52.284;9.892;2023-02-28T11:52:38;9.97;;;3.20;;
20101;SDS011;10210;52.284;9.892;2023-02-28T11:55:26;9.13;;;2.90;;
20101;SDS011;10210;52.284;9.892;2023-02-28T12:01:03;9.53;;;3.07;;
20101;SDS011;10210;52.284;9.892;2023-02-28T12:18:59;7.20;;;2.57;;
20101;SDS011;10210;52.284;9.892;2023-02-28T12:27:43;6.63;;;2.77;;
20101;SDS011;10210;52.284;9.892;2023-02-28T12:32:48;10.13;;;3.10;;
20101;SDS011;10210;52.284;9.892;2023-02-28T12:35:26;8.90;;;3.00;;
20101;SDS011;10210;52.284;9.892;2023-02-28T12:38:05;7.97;;;3.10;;
20101;SDS011;10210;52.284;9.892;2023-02-28T12:40:56;9.50;;;3.13;;
20101;SDS011;10210;52.284;9.892;2023-02-28T12:43:40;9.57;;;3.37;;
20101;SDS011;10210;52.284;9.892;2023-02-28T12:46:28;9.97;;;3.20;;
20101;SDS011;10210;52.284;9.892;2023-02-28T12:49:05;10.97;;;3.20;;
20101;SDS011;10210;52.284;9.892;2023-02-28T12:51:37;11.27;;;3.10;;
20101;SDS011;10210;52.284;9.892;2023-02-28T12:54:07;8.20;;;3.00;;
20101;SDS011;10210;52.284;9.892;2023-02-28T13:09:04;7.90;;;3.00;;
20101;SDS011;10210;52.284;9.892;2023-02-28T13:11:46;8.77;;;3.20;;
20101;SDS011;10210;52.284;9.892;2023-02-28T13:14:26;9.17;;;3.30;;
20101;SDS011;10210;52.284;9.892;2023-02-28T13:19:35;8.63;;;3.00;;
20101;SDS011;10210;52.284;9.892;2023-02-28T13:22:04;9.77;;;3.20;;
20101;SDS011;10210;52.284;9.892;2023-02-28T13:24:46;10.07;;;3.30;;
20101;SDS011;10210;52.284;9.892;2023-02-28T13:38:45;9.03;;;2.97;;
20101;SDS011;10210;52.284;9.892;2023-02-28T13:44:29;7.87;;;3.10;;
20101;SDS011;10210;52.284;9.892;2023-02-28T13:51:48;9.30;;;2.70;;
20101;SDS011;10210;52.284;9.892;2023-02-28T14:05:27;7.63;;;2.93;;
20101;SDS011;10210;52.284;9.892;2023-02-28T14:07:56;10.10;;;3.07;;
20101;SDS011;10210;52.284;9.892;2023-02-28T14:10:29;7.63;;;3.00;;
20101;SDS011;10210;52.284;9.892;2023-02-28T14:13:01;9.10;;;3.00;;
20101;SDS011;10210;52.284;9.892;2023-02-28T14:18:15;11.87;;;3.00;;
20101;SDS011;10210;52.284;9.892;2023-02-28T14:20:46;8.33;;;2.87;;
20101;SDS011;10210;52.284;9.892;2023-02-28T14:26:26;11.27;;;3.10;;
20101;SDS011;10210;52.284;9.892;2023-02-28T14:37:41;7.63;;;2.70;;
20101;SDS011;10210;52.284;9.892;2023-02-28T14:40:14;11.90;;;3.10;;
20101;SDS011;10210;52.284;9.892;2023-02-28T14:42:55;7.50;;;2.97;;
20101;SDS011;10210;52.284;9.892;2023-02-28T14:45:32;8.23;;;3.07;;
20101;SDS011;10210;52.284;9.892;2023-02-28T14:48:02;11.03;;;3.40;;
20101;SDS011;10210;52.284;9.892;2023-02-28T14:50:36;8.57;;;3.03;;
20101;SDS011;10210;52.284;9.892;2023-02-28T14:53:03;9.07;;;3.20;;
20101;SDS011;10210;52.284;9.892;2023-02-28T14:55:43;9.60;;;3.40;;
20101;SDS011;10210;52.284;9.892;2023-02-28T14:58:28;8.73;;;3.30;;
20101;SDS011;10210;52.284;9.892;2023-02-28T15:00:58;9.37;;;2.80;;
20101;SDS011;10210;52.284;9.892;2023-02-28T15:06:01;10.53;;;3.20;;
20101;SDS011;10210;52.284;9.892;2023-02-28T15:08:45;7.53;;;2.70;;
20101;SDS011;10210;52.284;9.892;2023-02-28T15:11:12;10.17;;;3.23;;
20101;SDS011;10210;52.284;9.892;2023-02-28T15:13:50;9.93;;;3.53;;
20101;SDS011;10210;52.284;9.892;2023-02-28T15:16:21;9.83;;;3.17;;
20101;SDS011;10210;52.284;9.892;2023-02-28T15:19:00;9.53;;;3.13;;
20101;SDS011;10210;52.284;9.892;2023-02-28T15:21:48;9.30;;;3.60;;
20101;SDS011;10210;52.284;9.892;2023-02-28T15:24:35;8.97;;;3.10;;
20101;SDS011;10210;52.284;9.892;2023-02-28T15:27:04;8.90;;;3.17;;
20101;SDS011;10210;52.284;9.892;2023-02-28T15:29:58;11.90;;;4.63;;
20101;SDS011;10210;52.284;9.892;2023-02-28T15:32:32;12.47;;;5.30;;
20101;SDS011;10210;52.284;9.892;2023-02-28T15:38:04;11.93;;;5.20;;
20101;SDS011;10210;52.284;9.892;2023-02-28T15:45:57;14.73;;;8.53;;
20101;SDS011;10210;52.284;9.892;2023-02-28T15:48:28;10.13;;;3.70;;
20101;SDS011;10210;52.284;9.892;2023-02-28T15:51:08;11.10;;;4.30;;
20101;SDS011;10210;52.284;9.892;2023-02-28T15:54:19;9.70;;;3.30;;
20101;SDS011;10210;52.284;9.892;2023-02-28T15:56:55;11.13;;;3.97;;
20101;SDS011;10210;52.284;9.892;2023-02-28T15:59:31;10.67;;;3.90;;
20101;SDS011;10210;52.284;9.892;2023-02-28T16:04:35;10.33;;;4.00;;
20101;SDS011;10210;52.284;9.892;2023-02-28T16:07:03;13.17;;;5.80;;
20101;SDS011;10210;52.284;9.892;2023-02-28T16:09:31;10.93;;;4.33;;
20101;SDS011;10210;52.284;9.892;2023-02-28T16:11:59;12.97;;;3.70;;
20101;SDS011;10210;52.284;9.892;2023-02-28T16:14:28;8.97;;;3.43;;
20101;SDS011;10210;52.284;9.892;2023-02-28T16:17:03;14.23;;;6.10;;
20101;SDS011;10210;52.284;9.892;2023-02-28T16:19:33;16.43;;;9.00;;
20101;SDS011;10210;52.284;9.892;2023-02-28T16:21:59;12.60;;;5.37;;
20101;SDS011;10210;52.284;9.892;2023-02-28T16:24:26;14.50;;;6.03;;
20101;SDS011;10210;52.284;9.892;2023-02-28T16:26:52;13.63;;;6.50;;
20101;SDS011;10210;52.284;9.892;2023-02-28T16:29:27;13.77;;;4.90;;
20101;SDS011;10210;52.284;9.892;2023-02-28T16:31:59;14.30;;;6.17;;
20101;SDS011;10210;52.284;9.892;2023-02-28T16:34:28;16.43;;;9.43;;
20101;SDS011;10210;52.284;9.892;2023-02-28T16:36:54;36.63;;;24.60;;
20101;SDS011;10210;52.284;9.892;2023-02-28T16:39:20;15.97;;;7.53;;
20101;SDS011;10210;52.284;9.892;2023-02-28T16:41:45;19.17;;;9.80;;
20101;SDS011;10210;52.284;9.892;2023-02-28T16:44:17;15.10;;;6.93;;
20101;SDS011;10210;52.284;9.892;2023-02-28T16:46:53;11.13;;;4.50;;
20101;SDS011;10210;52.284;9.892;2023-02-28T16:49:18;12.00;;;4.60;;
20101;SDS011;10210;52.284;9.892;2023-02-28T16:51:45;17.80;;;7.87;;
20101;SDS011;10210;52.284;9.892;2023-02-28T16:54:10;15.33;;;6.87;;
20101;SDS011;10210;52.284;9.892;2023-02-28T16:56:36;13.50;;;5.80;;
20101;SDS011;10210;52.284;9.892;2023-02-28T16:59:09;12.13;;;4.60;;
20101;SDS011;10210;52.284;9.892;2023-02-28T17:01:36;15.50;;;7.33;;
20101;SDS011;10210;52.284;9.892;2023-02-28T17:04:02;11.57;;;4.50;;
20101;SDS011;10210;52.284;9.892;2023-02-28T17:06:29;10.40;;;4.10;;
20101;SDS011;10210;52.284;9.892;2023-02-28T17:08:55;10.43;;;3.90;;
20101;SDS011;10210;52.284;9.892;2023-02-28T17:11:23;11.50;;;3.80;;
20101;SDS011;10210;52.284;9.892;2023-02-28T17:13:50;10.70;;;3.90;;
20101;SDS011;10210;52.284;9.892;2023-02-28T17:16:19;13.80;;;3.97;;
20101;SDS011;10210;52.284;9.892;2023-02-28T17:18:45;11.07;;;4.00;;
20101;SDS011;10210;52.284;9.892;2023-02-28T17:21:15;11.07;;;3.93;;
20101;SDS011;10210;52.284;9.892;2023-02-28T17:23:42;10.33;;;4.00;;
20101;SDS011;10210;52.284;9.892;2023-02-28T17:26:11;10.63;;;3.70;;
20101;SDS011;10210;52.284;9.892;2023-02-28T17:28:39;11.30;;;4.33;;
20101;SDS011;10210;52.284;9.892;2023-02-28T17:31:05;9.20;;;3.47;;
20101;SDS011;10210;52.284;9.892;2023-02-28T17:33:32;11.57;;;3.80;;
20101;SDS011;10210;52.284;9.892;2023-02-28T17:35:59;10.17;;;3.80;;
20101;SDS011;10210;52.284;9.892;2023-02-28T17:38:25;10.33;;;3.80;;
20101;SDS011;10210;52.284;9.892;2023-02-28T17:40:51;10.87;;;4.27;;
20101;SDS011;10210;52.284;9.892;2023-02-28T17:43:21;10.83;;;4.00;;
20101;SDS011;10210;52.284;9.892;2023-02-28T17:45:51;10.80;;;4.03;;
20101;SDS011;10210;52.284;9.892;2023-02-28T17:48:18;10.83;;;4.17;;
20101;SDS011;10210;52.284;9.892;2023-02-28T17:50:44;11.03;;;3.87;;
20101;SDS011;10210;52.284;9.892;2023-02-28T17:53:10;10.33;;;3.90;;
20101;SDS011;10210;52.284;9.892;2023-02-28T17:55:36;10.47;;;3.90;;